Main page
METAR-TAF:

METAR-TAF

Airports :

City of Derry Airport

Derry, Northern Ireland

latitude: 55-03N, longitude: 007-09W, elevation: 9 m

Current weather observation

The report was made 27 minutes ago, at 15:20 UTC
Wind 15 kt from the West
Temperature 11°C
Humidity 71%
Pressure 1030 hPa
Visibility 10 km or more
Few clouds at a height of 2000 ft
Broken clouds at a height of 3100 ft

METAR: EGAE 211520Z 28015KT 9999 FEW020 BKN031 11/06 Q1030

Time: 16:47 (15:47 UTC)

Forecast

The report was made 1 hour and 49 minutes ago, at 13:58 UTC
Forecast valid from 21 at 15 UTC to 21 at 21 UTC
Wind 12 kt from the West
Visibility 10 km or more
Few clouds at a height of 1800 ft
Scattered clouds at a height of 3000 ft

TAF: EGAE 211358Z 2115/2121 28012KT 9999 FEW018 SCT030

Weather observations and forecasts of more than 4000 airports (METAR and TAF reports).

The available stations are represented by yellow and red dots on the map.

Hover mouse over dot to see the name of the station.

Then click to see weather observations and forecasts.

To change the map : click on the green buttons with a black cross to zoom in, on the green button with a dash to zoom out, or on the green arrows for adjacent maps.


METAR-TAF: